Terminal Aerodrome Forecast
Issued by NWS

Home | Current Version | Previous Version | Text Only | Print | Product List | Glossary On
Versions: 1 2 3 4 5 6 7 8 9 10 11 12 13 14 15 16 17 18 19 20 21 22 23 24 25 26 27 28 29 30
699
FTUS43 KDLH 132337
TAFHYR
TAF
KHYR 132337Z 1400/1424 VRB03KT P6SM SCT020 BKN080
      TEMPO 1400/1403 6SM -SN BKN020
     FM140600 VRB03KT P6SM VCSH SCT015 BKN025
     FM141000 VRB04KT 6SM -SN BR BKN015 OVC025
     FM142200 28004KT P6SM -SN BKN030=

USA.gov is the U.S. government's official web portal to all federal, state and local government web resources and services.